Time;durP1;ratioP1;P1;durP2;ratioP2;P2;SDS_P1;SDS_P2;PMS_P1;PMS_P2;Temp;Humidity;BMP_temperature;BMP_pressure;BME280_temperature;BME280_humidity;BME280_pressure;Samples;Min_cycle;Max_cycle;Signal;HPM_P1;HPM_P2
2023/07/28 00:01:30;;;;;;;22.33;11.73;;;18.40;99.90;;;;;;5033034;28;20033;-74
2023/07/28 00:03:57;;;;;;;19.38;12.50;;;18.30;99.90;;;;;;5032819;28;20053;-74
2023/07/28 00:06:23;;;;;;;18.80;11.27;;;18.40;99.90;;;;;;5032767;28;20045;-74
2023/07/28 00:08:49;;;;;;;20.80;11.82;;;18.40;99.90;;;;;;5032794;28;20052;-74
2023/07/28 00:11:15;;;;;;;17.92;11.40;;;18.30;99.90;;;;;;5032903;28;20073;-74
2023/07/28 00:13:42;;;;;;;18.75;10.93;;;18.30;99.90;;;;;;5032647;28;20120;-74
2023/07/28 00:16:09;;;;;;;20.95;11.75;;;18.20;99.90;;;;;;5032605;28;20573;-74
2023/07/28 00:18:35;;;;;;;16.65;9.82;;;18.30;99.90;;;;;;5016068;28;20045;-74
2023/07/28 00:21:01;;;;;;;17.70;11.25;;;18.40;99.90;;;;;;5015972;28;20052;-74
2023/07/28 00:23:27;;;;;;;22.70;11.35;;;18.30;99.90;;;;;;5032461;28;20049;-74
2023/07/28 00:25:53;;;;;;;24.60;12.15;;;18.30;99.90;;;;;;5032737;28;20060;-74
2023/07/28 00:28:18;;;;;;;20.73;10.27;;;18.30;99.90;;;;;;5032329;28;20413;-74
2023/07/28 00:30:44;;;;;;;19.75;11.50;;;18.20;99.90;;;;;;5032338;28;20033;-74
2023/07/28 00:33:09;;;;;;;26.88;12.57;;;18.30;99.90;;;;;;5032635;28;20037;-74
2023/07/28 00:35:35;;;;;;;26.48;12.60;;;18.30;99.90;;;;;;5032347;28;20490;-74
2023/07/28 00:38:01;;;;;;;24.65;13.50;;;18.30;99.90;;;;;;5016098;28;20041;-74
2023/07/28 00:40:26;;;;;;;28.23;13.15;;;18.30;99.90;;;;;;5015624;28;20041;-74
2023/07/28 00:42:52;;;;;;;23.45;13.75;;;18.30;99.90;;;;;;5032239;28;20037;-74
2023/07/28 00:45:18;;;;;;;27.90;13.52;;;18.10;99.90;;;;;;5032166;28;20045;-74
2023/07/28 00:47:44;;;;;;;22.02;12.20;;;18.20;99.90;;;;;;5032078;28;20048;-74
2023/07/28 00:50:10;;;;;;;29.73;12.80;;;18.30;99.90;;;;;;5031954;28;20064;-74
2023/07/28 00:52:36;;;;;;;21.58;12.85;;;18.20;99.90;;;;;;5015608;28;20076;-74
2023/07/28 00:55:02;;;;;;;22.85;11.93;;;18.20;99.90;;;;;;5032031;28;20030;-74
2023/07/28 00:57:28;;;;;;;20.17;11.75;;;18.30;99.90;;;;;;5031981;28;20045;-74
2023/07/28 00:59:54;;;;;;;20.15;11.27;;;18.30;99.90;;;;;;5015476;28;20040;-75
2023/07/28 01:02:20;;;;;;;22.05;12.57;;;18.20;99.90;;;;;;5031937;28;20041;-75
2023/07/28 01:04:47;;;;;;;23.85;13.07;;;18.30;99.90;;;;;;5015503;28;20098;-75
2023/07/28 01:07:22;;;;;;;25.65;12.25;;;18.20;99.90;;;;;;5031875;28;20046;-75
2023/07/28 01:10:10;;;;;;;20.98;12.73;;;18.30;99.90;;;;;;5031579;28;20037;-75
2023/07/28 01:12:35;;;;;;;25.25;12.75;;;18.20;99.90;;;;;;5031869;28;20041;-75
2023/07/28 01:15:01;;;;;;;24.42;12.65;;;18.30;99.90;;;;;;5015380;28;20040;-75
2023/07/28 01:17:27;;;;;;;22.63;13.00;;;18.20;99.90;;;;;;5032012;28;20045;-75
2023/07/28 01:19:53;;;;;;;23.98;13.35;;;18.30;99.90;;;;;;5031680;28;20486;-75
2023/07/28 01:22:24;;;;;;;26.77;14.13;;;18.20;99.90;;;;;;5031747;28;20041;-75
2023/07/28 01:25:17;;;;;;;22.55;13.27;;;18.30;99.90;;;;;;5031984;28;20045;-75
2023/07/28 01:27:43;;;;;;;24.57;14.20;;;18.30;99.90;;;;;;5031982;28;20060;-75
2023/07/28 01:30:09;;;;;;;25.70;12.88;;;18.10;99.90;;;;;;5031548;28;20494;-75
2023/07/28 01:32:36;;;;;;;28.67;14.10;;;18.20;99.90;;;;;;5031948;28;20084;-75
2023/07/28 01:35:03;;;;;;;25.58;14.45;;;18.30;99.90;;;;;;5031848;28;20033;-75
2023/07/28 01:37:29;;;;;;;27.85;14.75;;;18.10;99.90;;;;;;5031825;28;20053;-75
2023/07/28 01:39:57;;;;;;;24.10;13.30;;;18.30;99.90;;;;;;5031804;28;20077;-75
2023/07/28 01:42:23;;;;;;;27.63;16.02;;;18.20;99.90;;;;;;5031581;28;20049;-75
2023/07/28 01:44:48;;;;;;;29.25;15.40;;;18.20;99.90;;;;;;5031538;28;20037;-75
2023/07/28 01:47:14;;;;;;;28.20;14.90;;;18.10;99.90;;;;;;5015018;28;20124;-75
2023/07/28 01:49:40;;;;;;;27.38;15.30;;;18.20;99.90;;;;;;5031265;28;20045;-75
2023/07/28 01:52:05;;;;;;;31.10;16.13;;;18.30;99.90;;;;;;5031774;28;20045;-75
2023/07/28 01:54:31;;;;;;;30.85;16.70;;;18.20;99.90;;;;;;5031708;28;20469;-75
2023/07/28 01:56:57;;;;;;;38.75;18.48;;;18.30;99.90;;;;;;5031439;28;20387;-75
2023/07/28 01:59:22;;;;;;;31.42;16.73;;;18.20;99.90;;;;;;5014875;28;20046;-75
2023/07/28 02:01:48;;;;;;;28.25;15.55;;;18.10;99.90;;;;;;5031363;28;20045;-75
2023/07/28 02:04:13;;;;;;;42.25;19.98;;;18.20;99.90;;;;;;5031331;28;20033;-75
2023/07/28 02:06:39;;;;;;;35.28;18.02;;;18.30;99.90;;;;;;5032411;28;20123;-75
2023/07/28 02:09:05;;;;;;;37.65;17.83;;;18.10;99.90;;;;;;5014886;28;20414;-75
2023/07/28 02:11:30;;;;;;;33.70;17.63;;;18.20;99.90;;;;;;5031213;28;20517;-75
2023/07/28 02:13:56;;;;;;;31.27;16.58;;;18.20;99.90;;;;;;5031533;28;20033;-75
2023/07/28 02:16:21;;;;;;;33.22;15.75;;;18.10;99.90;;;;;;5014854;28;20444;-75
2023/07/28 02:18:47;;;;;;;30.00;15.30;;;18.20;99.90;;;;;;5015078;28;20116;-75
2023/07/28 02:21:13;;;;;;;33.80;16.13;;;18.30;99.90;;;;;;5033068;28;20095;-75
2023/07/28 02:23:38;;;;;;;25.73;14.48;;;18.30;99.90;;;;;;5018298;28;20045;-75
2023/07/28 02:26:04;;;;;;;32.33;15.15;;;18.20;99.90;;;;;;5035017;28;20077;-74
2023/07/28 02:28:29;;;;;;;33.42;14.98;;;18.20;99.90;;;;;;5034569;28;20048;-74
2023/07/28 02:30:55;;;;;;;24.42;12.63;;;18.20;99.90;;;;;;5034570;28;20087;-74
2023/07/28 02:33:20;;;;;;;28.42;12.38;;;18.20;99.90;;;;;;5034817;28;20041;-74
2023/07/28 02:35:46;;;;;;;21.92;12.18;;;18.10;99.90;;;;;;5034562;28;20493;-74
2023/07/28 02:38:12;;;;;;;21.55;12.85;;;18.30;99.90;;;;;;5034461;28;20076;-74
2023/07/28 02:40:37;;;;;;;26.00;13.30;;;18.10;99.90;;;;;;5017984;28;20045;-74
2023/07/28 02:43:03;;;;;;;25.27;12.85;;;18.10;99.90;;;;;;5034406;28;20140;-74
2023/07/28 02:45:29;;;;;;;27.40;13.52;;;18.10;99.90;;;;;;5034642;28;20041;-74
2023/07/28 02:47:54;;;;;;;30.42;13.57;;;18.30;99.90;;;;;;5034479;28;20041;-74
2023/07/28 02:50:20;;;;;;;24.85;11.55;;;18.20;99.90;;;;;;5034095;28;20406;-74
2023/07/28 02:52:46;;;;;;;27.77;12.93;;;18.20;99.90;;;;;;5034454;28;20040;-74
2023/07/28 02:55:11;;;;;;;29.40;14.15;;;18.30;99.90;;;;;;5034424;28;20088;-74
2023/07/28 02:57:37;;;;;;;29.15;13.07;;;18.30;99.90;;;;;;5034109;28;20123;-74
2023/07/28 03:00:05;;;;;;;28.48;13.30;;;18.10;99.90;;;;;;5034277;28;20048;-74
2023/07/28 03:02:31;;;;;;;26.33;12.88;;;18.30;99.90;;;;;;5034052;28;20061;-74
2023/07/28 03:04:56;;;;;;;32.40;14.25;;;18.30;99.90;;;;;;5034039;28;20069;-74
2023/07/28 03:07:22;;;;;;;26.35;12.23;;;18.20;99.90;;;;;;5034164;28;20069;-74
2023/07/28 03:09:47;;;;;;;28.83;12.57;;;18.20;99.90;;;;;;5034713;28;20056;-74
2023/07/28 03:12:13;;;;;;;23.55;12.13;;;18.10;99.90;;;;;;5033912;28;20033;-74
2023/07/28 03:14:39;;;;;;;28.63;12.30;;;18.10;99.90;;;;;;5017595;28;20037;-74
2023/07/28 03:17:05;;;;;;;21.30;12.02;;;18.10;99.90;;;;;;5034035;28;20130;-74
2023/07/28 03:19:30;;;;;;;29.30;13.30;;;18.20;99.90;;;;;;5033924;28;20406;-74
2023/07/28 03:21:56;;;;;;;29.10;14.18;;;18.30;99.90;;;;;;5033648;28;20551;-74
2023/07/28 03:24:21;;;;;;;24.40;13.15;;;18.30;99.90;;;;;;5033658;28;20056;-74
2023/07/28 03:26:47;;;;;;;28.38;14.93;;;18.20;99.90;;;;;;5017100;28;20045;-74
2023/07/28 03:29:13;;;;;;;35.72;15.45;;;18.20;99.90;;;;;;5033356;28;20049;-74
2023/07/28 03:31:38;;;;;;;35.65;16.10;;;18.10;99.90;;;;;;5033420;28;20159;-74
2023/07/28 03:34:04;;;;;;;29.02;13.95;;;18.10;99.90;;;;;;5033705;28;20045;-74
2023/07/28 03:36:29;;;;;;;27.17;14.00;;;18.20;99.90;;;;;;5033393;28;20399;-74
2023/07/28 03:38:56;;;;;;;27.40;14.38;;;18.00;99.90;;;;;;5033578;28;20045;-74
2023/07/28 03:41:21;;;;;;;35.80;15.88;;;18.10;99.90;;;;;;5033491;28;20090;-74
2023/07/28 03:43:47;;;;;;;31.98;15.60;;;18.20;99.90;;;;;;5033245;28;20515;-74
2023/07/28 03:46:13;;;;;;;24.70;15.32;;;18.20;99.90;;;;;;5016634;28;20042;-74
2023/07/28 03:48:38;;;;;;;24.65;15.13;;;18.20;99.90;;;;;;5033064;28;20045;-74
2023/07/28 03:51:04;;;;;;;25.92;14.20;;;18.10;99.90;;;;;;5033187;28;20129;-74
2023/07/28 03:53:30;;;;;;;35.08;16.67;;;18.20;99.90;;;;;;5033067;28;20533;-74
2023/07/28 03:55:58;;;;;;;31.63;15.77;;;18.10;99.90;;;;;;5016565;28;20037;-74
2023/07/28 03:58:27;;;;;;;30.00;15.55;;;18.10;99.90;;;;;;5032950;28;20056;-74
2023/07/28 04:00:53;;;;;;;30.83;15.43;;;18.10;99.90;;;;;;5032857;28;20033;-74
2023/07/28 04:03:19;;;;;;;25.60;15.73;;;18.20;99.90;;;;;;5016375;28;20033;-74
2023/07/28 04:05:45;;;;;;;37.88;16.85;;;18.20;99.90;;;;;;5032840;28;20045;-74
2023/07/28 04:08:10;;;;;;;27.75;14.48;;;18.20;99.90;;;;;;5016310;28;20042;-74
2023/07/28 04:10:36;;;;;;;32.22;16.83;;;18.10;99.90;;;;;;5032650;28;20041;-74
2023/07/28 04:13:01;;;;;;;28.17;15.38;;;18.20;99.90;;;;;;5032687;28;20029;-74
2023/07/28 04:15:27;;;;;;;32.90;15.63;;;18.20;99.90;;;;;;5032921;28;20111;-74
2023/07/28 04:17:53;;;;;;;30.58;16.13;;;18.10;99.90;;;;;;5032630;28;20413;-74
2023/07/28 04:20:18;;;;;;;32.65;14.35;;;18.20;99.90;;;;;;5032745;28;20041;-74
2023/07/28 04:22:44;;;;;;;32.92;15.13;;;18.30;99.90;;;;;;5032791;28;20494;-74
2023/07/28 04:25:09;;;;;;;30.95;16.77;;;18.20;99.90;;;;;;5032538;28;20041;-74
2023/07/28 04:27:35;;;;;;;32.35;16.20;;;18.10;99.90;;;;;;5032364;28;20045;-74
2023/07/28 04:30:01;;;;;;;30.15;15.00;;;18.10;99.90;;;;;;5032326;28;20120;-74
2023/07/28 04:32:26;;;;;;;33.22;14.68;;;18.30;99.90;;;;;;5032596;28;20100;-74
2023/07/28 04:34:53;;;;;;;26.08;13.45;;;18.10;99.90;;;;;;5032374;28;20406;-74
2023/07/28 04:37:19;;;;;;;25.10;13.45;;;18.30;99.90;;;;;;5032534;28;20033;-74
2023/07/28 04:39:44;;;;;;;26.52;14.23;;;18.10;99.90;;;;;;5032470;28;20446;-74
2023/07/28 04:42:10;;;;;;;31.50;14.98;;;18.20;99.90;;;;;;5032215;28;20464;-74
2023/07/28 04:44:39;;;;;;;35.13;15.02;;;18.20;99.90;;;;;;5031759;28;20044;-74
2023/07/28 04:47:05;;;;;;;31.58;15.52;;;18.20;99.90;;;;;;5032122;28;20048;-74
2023/07/28 04:49:30;;;;;;;33.08;15.95;;;18.30;99.90;;;;;;5031904;28;20042;-74
2023/07/28 04:51:56;;;;;;;30.40;15.35;;;18.20;99.90;;;;;;5015708;28;20033;-75
2023/07/28 04:54:22;;;;;;;29.05;12.93;;;18.20;99.90;;;;;;5015591;28;20041;-75
2023/07/28 04:56:49;;;;;;;30.63;13.10;;;18.30;99.90;;;;;;5015807;28;20037;-75
2023/07/28 04:59:15;;;;;;;25.90;13.48;;;18.20;99.90;;;;;;5031932;28;20176;-74
2023/07/28 05:01:41;;;;;;;26.98;13.85;;;18.40;99.90;;;;;;5031927;28;20109;-74
2023/07/28 05:04:06;;;;;;;28.80;13.65;;;18.30;99.90;;;;;;5032198;28;20395;-74
2023/07/28 05:06:32;;;;;;;31.73;14.68;;;18.20;99.90;;;;;;5031890;28;20033;-74
2023/07/28 05:08:57;;;;;;;23.95;12.95;;;18.20;99.90;;;;;;5031819;28;20038;-74
2023/07/28 05:11:23;;;;;;;34.30;13.85;;;18.40;99.90;;;;;;5015308;28;20087;-74
2023/07/28 05:13:49;;;;;;;30.08;14.32;;;18.40;99.90;;;;;;5032075;28;20049;-74
2023/07/28 05:16:15;;;;;;;25.63;13.50;;;18.40;99.90;;;;;;5031820;28;20406;-74
2023/07/28 05:18:42;;;;;;;24.60;12.88;;;18.20;99.90;;;;;;5032055;28;20128;-74
2023/07/28 05:21:08;;;;;;;24.33;13.05;;;18.30;99.90;;;;;;5031654;28;20045;-74
2023/07/28 05:23:34;;;;;;;22.45;12.48;;;18.30;99.90;;;;;;5031741;28;20078;-74
2023/07/28 05:25:59;;;;;;;28.63;13.13;;;18.40;99.90;;;;;;5031982;28;20045;-74
2023/07/28 05:28:25;;;;;;;27.30;14.23;;;18.30;99.90;;;;;;5031599;28;20410;-74
2023/07/28 05:30:50;;;;;;;30.30;14.27;;;18.40;99.90;;;;;;5031820;28;20096;-74
2023/07/28 05:33:16;;;;;;;29.45;15.10;;;18.30;99.90;;;;;;5031628;28;20033;-74
2023/07/28 05:35:42;;;;;;;23.17;12.40;;;18.30;99.90;;;;;;5031877;28;20037;-74
2023/07/28 05:38:07;;;;;;;34.72;14.57;;;18.50;99.90;;;;;;5031669;28;20525;-74
2023/07/28 05:40:33;;;;;;;31.70;13.60;;;18.40;99.90;;;;;;5031447;28;20044;-74
2023/07/28 05:42:58;;;;;;;32.42;14.48;;;18.40;99.90;;;;;;5031498;28;20038;-74
2023/07/28 05:45:24;;;;;;;26.92;13.55;;;18.40;99.90;;;;;;5031546;28;20041;-74
2023/07/28 05:47:50;;;;;;;26.88;13.02;;;18.60;99.90;;;;;;5031469;28;20050;-74
2023/07/28 05:50:15;;;;;;;28.15;12.77;;;18.60;99.90;;;;;;5031643;28;20037;-74
2023/07/28 05:52:41;;;;;;;28.83;12.90;;;18.40;99.90;;;;;;5031514;28;20087;-74
2023/07/28 05:55:07;;;;;;;30.52;12.38;;;18.60;99.90;;;;;;5031965;28;20038;-74
2023/07/28 05:57:32;;;;;;;24.73;12.10;;;18.60;99.90;;;;;;5035262;28;20525;-74
2023/07/28 05:59:58;;;;;;;31.58;13.80;;;18.50;99.90;;;;;;5035259;28;20118;-74
2023/07/28 06:02:23;;;;;;;28.40;13.57;;;18.50;99.90;;;;;;5018676;28;20037;-74
2023/07/28 06:04:49;;;;;;;24.65;12.88;;;18.60;99.90;;;;;;5018917;28;20037;-74
2023/07/28 06:07:15;;;;;;;24.67;12.70;;;18.60;99.90;;;;;;5035147;28;20136;-74
2023/07/28 06:09:40;;;;;;;25.45;12.93;;;18.60;99.90;;;;;;5034982;28;20044;-74
2023/07/28 06:12:06;;;;;;;30.90;12.35;;;18.70;99.90;;;;;;5034954;28;20498;-74
2023/07/28 06:14:32;;;;;;;26.48;12.48;;;18.80;99.90;;;;;;5018396;28;20033;-74
2023/07/28 06:16:57;;;;;;;28.08;12.30;;;18.70;99.90;;;;;;5034931;28;20034;-74
2023/07/28 06:19:23;;;;;;;23.23;12.45;;;18.80;99.90;;;;;;5018585;28;20091;-74
2023/07/28 06:21:52;;;;;;;25.75;12.40;;;18.80;99.90;;;;;;5035077;28;20085;-74
2023/07/28 06:24:18;;;;;;;20.92;11.40;;;18.70;99.90;;;;;;5018564;28;20059;-74
2023/07/28 06:26:44;;;;;;;16.63;10.25;;;18.80;99.90;;;;;;5035242;28;20486;-74
2023/07/28 06:29:09;;;;;;;21.38;10.57;;;18.80;99.90;;;;;;5034778;28;20045;-74
2023/07/28 06:31:35;;;;;;;19.20;9.48;;;18.80;99.90;;;;;;5034897;28;20041;-74
2023/07/28 06:34:01;;;;;;;18.52;10.98;;;18.90;99.90;;;;;;5034636;28;20033;-74
2023/07/28 06:36:27;;;;;;;23.33;9.02;;;18.70;99.90;;;;;;5034472;28;20080;-74
2023/07/28 06:38:55;;;;;;;21.83;9.32;;;18.90;99.90;;;;;;5034707;28;20068;-74
2023/07/28 06:41:21;;;;;;;18.85;9.70;;;18.80;99.90;;;;;;5017820;28;20418;-74
2023/07/28 06:43:48;;;;;;;16.33;8.75;;;18.80;99.90;;;;;;5034421;28;20049;-74
2023/07/28 06:46:14;;;;;;;16.90;8.35;;;18.80;99.90;;;;;;5034367;28;20046;-74
2023/07/28 06:48:40;;;;;;;19.98;8.38;;;18.80;99.90;;;;;;5034364;28;20083;-74
2023/07/28 06:51:06;;;;;;;16.05;8.45;;;18.90;99.90;;;;;;5034096;28;20046;-74
2023/07/28 06:53:31;;;;;;;17.98;7.97;;;18.90;99.90;;;;;;5034233;28;20510;-74
2023/07/28 06:55:57;;;;;;;17.98;7.78;;;18.90;99.90;;;;;;5034490;28;20051;-74
2023/07/28 06:58:22;;;;;;;17.13;6.95;;;18.90;99.90;;;;;;5034413;28;20177;-74
2023/07/28 07:00:48;;;;;;;15.02;6.13;;;19.10;99.90;;;;;;5034051;28;20037;-78
2023/07/28 07:03:14;;;;;;;13.10;5.50;;;19.00;99.90;;;;;;5034078;28;20045;-73
2023/07/28 07:05:40;;;;;;;11.32;5.50;;;19.10;99.90;;;;;;5033943;28;20107;-73
2023/07/28 07:08:06;;;;;;;12.27;4.95;;;19.10;99.90;;;;;;5033559;28;20041;-73
2023/07/28 07:10:32;;;;;;;13.02;5.13;;;19.20;99.90;;;;;;5034228;28;20582;-74
2023/07/28 07:12:57;;;;;;;9.82;4.93;;;19.30;99.90;;;;;;5033891;28;20124;-74
2023/07/28 07:15:23;;;;;;;11.50;4.72;;;19.30;99.90;;;;;;5034047;28;20049;-74
2023/07/28 07:17:49;;;;;;;9.10;4.85;;;19.40;99.90;;;;;;5034033;28;20048;-72
2023/07/28 07:20:15;;;;;;;10.93;4.80;;;19.50;99.90;;;;;;5033705;28;20048;-73
2023/07/28 07:22:41;;;;;;;10.63;5.28;;;19.60;99.90;;;;;;5033913;28;20413;-73
2023/07/28 07:25:07;;;;;;;9.85;4.30;;;19.70;99.90;;;;;;5033654;28;20486;-73
2023/07/28 07:27:33;;;;;;;11.43;5.40;;;19.70;99.90;;;;;;5033549;28;20498;-74
2023/07/28 07:29:58;;;;;;;10.93;5.40;;;19.70;99.90;;;;;;5033334;28;20052;-74
2023/07/28 07:32:24;;;;;;;13.15;5.95;;;19.80;99.90;;;;;;5033501;28;20061;-74
2023/07/28 07:34:50;;;;;;;9.60;5.55;;;19.80;99.90;;;;;;5033475;28;20033;-74
2023/07/28 07:37:15;;;;;;;11.10;5.70;;;19.90;99.90;;;;;;5033408;28;20048;-74
2023/07/28 07:39:43;;;;;;;12.60;5.57;;;20.00;99.90;;;;;;5033276;28;20049;-74
2023/07/28 07:42:10;;;;;;;11.25;5.55;;;20.10;99.90;;;;;;5017097;28;20124;-74
2023/07/28 07:44:36;;;;;;;15.43;5.22;;;20.10;99.90;;;;;;5016861;28;20052;-74
2023/07/28 07:47:13;;;;;;;7.50;4.25;;;20.30;99.90;;;;;;5033243;28;20037;-73
2023/07/28 07:49:38;;;;;;;10.27;5.13;;;20.40;99.90;;;;;;5032821;28;20041;-75
2023/07/28 07:52:06;;;;;;;14.90;5.00;;;20.50;99.90;;;;;;5033394;28;20029;-74
2023/07/28 07:54:32;;;;;;;10.32;5.35;;;20.60;99.90;;;;;;5016550;28;20033;-74
2023/07/28 07:56:57;;;;;;;9.45;5.85;;;20.50;99.90;;;;;;5033285;28;20103;-74
2023/07/28 07:59:27;;;;;;;9.07;4.80;;;20.70;99.90;;;;;;5033199;28;20128;-74
2023/07/28 08:01:52;;;;;;;7.95;4.90;;;20.70;99.90;;;;;;5032999;28;20049;-74
2023/07/28 08:04:18;;;;;;;9.55;5.20;;;20.60;99.90;;;;;;5033100;28;20048;-74
2023/07/28 08:06:43;;;;;;;8.88;5.05;;;20.60;99.90;;;;;;5032880;28;20060;-74
2023/07/28 08:09:09;;;;;;;11.20;5.20;;;20.80;99.90;;;;;;5032675;28;20041;-74
2023/07/28 08:11:35;;;;;;;7.20;4.40;;;21.00;99.90;;;;;;5032777;28;20082;-74
2023/07/28 08:14:01;;;;;;;6.00;4.72;;;21.10;99.90;;;;;;5032713;28;20038;-74
2023/07/28 08:16:26;;;;;;;6.22;3.85;;;21.20;99.90;;;;;;5032937;28;20033;-74
2023/07/28 08:18:52;;;;;;;10.70;4.55;;;21.20;99.90;;;;;;5015442;28;20406;-74
2023/07/28 08:21:18;;;;;;;8.02;3.75;;;21.30;99.90;;;;;;5032781;28;20140;-74
2023/07/28 08:23:44;;;;;;;8.40;4.10;;;21.40;99.90;;;;;;5032631;28;20042;-74
2023/07/28 08:26:09;;;;;;;10.93;4.80;;;21.30;99.90;;;;;;5032772;28;20037;-74
2023/07/28 08:28:35;;;;;;;13.30;4.38;;;21.40;99.90;;;;;;5032404;28;20037;-74
2023/07/28 08:31:01;;;;;;;7.22;4.30;;;21.30;99.90;;;;;;5015886;28;20038;-74
2023/07/28 08:33:27;;;;;;;7.75;4.50;;;21.10;99.90;;;;;;5032371;28;20132;-74
2023/07/28 08:35:52;;;;;;;9.30;4.32;;;21.20;99.90;;;;;;5032313;28;20490;-74
2023/07/28 08:38:18;;;;;;;9.75;4.45;;;21.30;99.90;;;;;;5032557;28;20060;-74
2023/07/28 08:40:45;;;;;;;7.45;4.47;;;21.50;99.90;;;;;;5032166;28;20391;-74
2023/07/28 08:43:10;;;;;;;7.18;3.58;;;21.50;99.90;;;;;;5015836;28;20085;-74
2023/07/28 08:45:36;;;;;;;10.98;4.00;;;21.60;99.90;;;;;;5032167;28;20050;-74
2023/07/28 08:48:02;;;;;;;8.13;3.70;;;21.40;99.90;;;;;;5032084;28;20052;-74
2023/07/28 08:50:27;;;;;;;9.60;4.05;;;21.40;99.90;;;;;;5031970;28;20124;-74
2023/07/28 08:52:54;;;;;;;6.15;3.60;;;21.40;99.90;;;;;;5015689;28;20091;-74
2023/07/28 08:55:19;;;;;;;10.00;3.80;;;21.50;99.90;;;;;;5031990;28;20418;-74
2023/07/28 08:57:45;;;;;;;11.23;5.18;;;21.70;99.90;;;;;;5015629;28;20037;-74
2023/07/28 09:00:14;;;;;;;7.20;3.90;;;21.80;99.90;;;;;;5015479;28;20073;-74
2023/07/28 09:02:41;;;;;;;8.55;4.70;;;21.90;99.90;;;;;;5031984;28;20035;-74
2023/07/28 09:05:16;;;;;;;9.65;4.50;;;21.90;99.90;;;;;;5031945;28;20037;-74
2023/07/28 09:07:43;;;;;;;9.00;4.18;;;21.80;99.90;;;;;;5032144;28;20152;-74
2023/07/28 09:10:08;;;;;;;8.75;4.43;;;21.70;99.90;;;;;;5015342;28;20041;-74
2023/07/28 09:12:34;;;;;;;7.70;4.03;;;21.50;99.90;;;;;;5031853;28;20044;-74
2023/07/28 09:15:00;;;;;;;8.48;4.15;;;21.50;99.90;;;;;;5031770;28;20095;-74
2023/07/28 09:17:26;;;;;;;8.18;4.18;;;21.40;99.90;;;;;;5031782;28;20550;-74
2023/07/28 09:19:56;;;;;;;11.00;4.65;;;21.30;99.90;;;;;;5031623;28;20176;-74
2023/07/28 09:22:23;;;;;;;8.80;3.78;;;21.30;99.90;;;;;;5031572;28;20077;-74
2023/07/28 09:24:50;;;;;;;9.63;4.03;;;21.30;99.90;;;;;;5016052;28;20049;-74
2023/07/28 09:27:29;;;;;;;7.18;3.75;;;21.30;99.90;;;;;;5015313;28;20045;-74
2023/07/28 09:29:55;;;;;;;7.55;3.53;;;21.30;99.90;;;;;;5033212;28;20122;-74
2023/07/28 09:32:36;;;;;;;8.68;3.25;;;21.30;99.90;;;;;;5035776;28;20038;-74
2023/07/28 09:35:13;;;;;;;5.40;2.88;;;21.30;99.90;;;;;;5019237;28;20046;-74
2023/07/28 09:37:44;;;;;;;6.20;3.28;;;21.60;99.90;;;;;;5035615;28;20121;-74
2023/07/28 09:40:18;;;;;;;5.28;2.88;;;21.80;99.90;;;;;;5019283;28;20068;-74
2023/07/28 09:42:49;;;;;;;5.85;2.92;;;21.90;99.90;;;;;;5035620;28;20037;-75
2023/07/28 09:45:16;;;;;;;5.55;2.80;;;21.90;99.90;;;;;;5019365;28;20048;-75
2023/07/28 09:47:44;;;;;;;9.68;3.10;;;22.00;99.90;;;;;;5035781;28;20383;-74
2023/07/28 09:50:14;;;;;;;4.88;2.30;;;22.20;99.90;;;;;;5035233;28;20076;-74
2023/07/28 09:52:45;;;;;;;6.90;2.65;;;22.40;99.90;;;;;;5035411;28;20048;-75
2023/07/28 09:55:13;;;;;;;4.93;2.20;;;22.50;99.90;;;;;;5035380;28;20041;-74
2023/07/28 09:57:45;;;;;;;5.75;2.38;;;22.40;99.90;;;;;;5035553;28;20183;-75
2023/07/28 10:00:12;;;;;;;6.60;2.60;;;22.50;99.90;;;;;;5035514;28;20029;-74
2023/07/28 10:02:39;;;;;;;5.43;2.00;;;22.40;99.90;;;;;;5035212;28;20038;-74
2023/07/28 10:05:07;;;;;;;7.43;2.58;;;22.40;99.90;;;;;;5035186;28;20033;-74
2023/07/28 10:07:40;;;;;;;4.45;1.98;;;22.50;99.90;;;;;;5018602;28;20033;-75
2023/07/28 10:10:07;;;;;;;5.53;2.25;;;22.60;99.90;;;;;;5018509;28;20128;-74
2023/07/28 10:12:52;;;;;;;15.18;3.63;;;22.70;99.90;;;;;;5018618;28;20118;-74
2023/07/28 10:15:28;;;;;;;9.70;3.10;;;22.70;99.90;;;;;;5035050;28;20128;-74
2023/07/28 10:17:57;;;;;;;5.60;2.50;;;22.60;99.90;;;;;;5034952;28;20033;-74
2023/07/28 10:20:35;;;;;;;7.53;2.25;;;22.50;99.90;;;;;;5035101;28;20068;-74
2023/07/28 10:23:13;;;;;;;5.28;2.70;;;22.60;99.90;;;;;;5018334;28;20033;-74
2023/07/28 10:25:40;;;;;;;7.43;2.67;;;22.90;99.90;;;;;;5034850;28;20453;-74
2023/07/28 10:28:07;;;;;;;4.20;2.45;;;23.10;99.90;;;;;;5034933;28;20064;-74
2023/07/28 10:30:38;;;;;;;6.85;2.97;;;23.30;99.90;;;;;;5034589;28;20044;-74
2023/07/28 10:33:04;;;;;;;6.43;2.67;;;23.40;99.90;;;;;;5034988;28;20068;-74
2023/07/28 10:35:31;;;;;;;5.40;2.40;;;23.40;99.90;;;;;;5034677;28;20486;-74
2023/07/28 10:37:57;;;;;;;4.78;2.58;;;23.40;99.90;;;;;;5034553;28;20567;-74
2023/07/28 10:40:27;;;;;;;5.43;2.78;;;23.50;99.90;;;;;;5034471;28;20076;-75
2023/07/28 10:42:53;;;;;;;6.72;2.95;;;23.60;99.90;;;;;;5033904;28;20038;-74
2023/07/28 10:45:20;;;;;;;8.23;3.10;;;23.90;99.90;;;;;;5034466;28;20065;-74
2023/07/28 10:47:47;;;;;;;6.88;2.58;;;23.90;99.90;;;;;;5034309;28;20044;-75
2023/07/28 10:50:13;;;;;;;5.55;2.75;;;23.90;99.90;;;;;;5017690;28;20084;-75
2023/07/28 10:52:43;;;;;;;6.10;3.03;;;24.00;99.90;;;;;;5034569;28;20077;-74
2023/07/28 10:55:20;;;;;;;5.20;2.92;;;24.20;99.90;;;;;;5034527;28;20073;-75
2023/07/28 10:57:48;;;;;;;6.50;2.95;;;24.40;99.90;;;;;;5034418;28;20509;-74
2023/07/28 11:00:16;;;;;;;6.80;3.05;;;24.50;99.90;;;;;;5034009;28;20121;-74
2023/07/28 11:02:46;;;;;;;5.95;3.08;;;24.80;99.90;;;;;;5034374;28;20517;-75
2023/07/28 11:05:18;;;;;;;6.47;3.50;;;25.00;99.90;;;;;;5034079;28;20120;-74
2023/07/28 11:07:44;;;;;;;6.77;3.90;;;25.20;99.90;;;;;;5034401;28;20490;-74
2023/07/28 11:10:14;;;;;;;5.82;2.75;;;25.40;99.90;;;;;;5033880;28;20038;-75
2023/07/28 11:12:45;;;;;;;3.58;2.10;;;25.60;99.90;;;;;;5033972;28;20096;-75
2023/07/28 11:15:12;;;;;;;5.60;3.22;;;25.60;99.90;;;;;;5033872;28;20112;-75
2023/07/28 11:17:45;;;;;;;8.77;2.90;;;25.60;99.90;;;;;;5034099;28;20092;-78
2023/07/28 11:20:17;;;;;;;5.65;2.83;;;25.60;99.90;;;;;;5034101;28;20460;-79
2023/07/28 11:22:45;;;;;;;4.40;3.03;;;25.70;99.90;;;;;;5018496;28;20030;-80
2023/07/28 11:25:11;;;;;;;6.95;3.67;;;25.60;99.90;;;;;;5018286;28;20095;-80
2023/07/28 11:27:37;;;;;;;6.55;4.07;;;25.40;99.90;;;;;;5034895;28;20076;-80
2023/07/28 11:30:04;;;;;;;7.85;3.90;;;25.10;99.90;;;;;;5034091;28;20095;-79
2023/07/28 11:32:34;;;;;;;7.00;3.65;;;24.80;99.90;;;;;;5033842;28;20095;-79
2023/07/28 11:35:09;;;;;;;10.38;4.28;;;24.50;99.90;;;;;;5034037;28;20071;-79
2023/07/28 11:37:35;;;;;;;9.30;4.40;;;24.10;99.90;;;;;;5034274;28;20099;-79
2023/07/28 11:40:06;;;;;;;8.30;5.20;;;23.80;99.90;;;;;;5017670;28;20038;-80
2023/07/28 11:42:34;;;;;;;10.27;5.00;;;23.70;99.90;;;;;;5034434;28;20041;-80
2023/07/28 11:45:00;;;;;;;9.95;5.70;;;23.90;99.90;;;;;;5017700;28;20048;-80
2023/07/28 11:47:26;;;;;;;7.93;6.10;;;24.40;99.90;;;;;;5017947;28;20484;-80
2023/07/28 11:49:51;;;;;;;9.63;5.65;;;24.70;99.90;;;;;;5017753;28;20621;-80
2023/07/28 11:52:17;;;;;;;9.93;6.15;;;24.80;99.90;;;;;;5018163;28;20038;-79
2023/07/28 11:54:44;;;;;;;9.80;5.85;;;25.20;99.90;;;;;;5034179;28;20433;-79
2023/07/28 11:57:12;;;;;;;11.45;7.03;;;25.50;99.90;;;;;;5034505;28;20063;-79
2023/07/28 11:59:38;;;;;;;10.35;7.88;;;25.60;99.90;;;;;;5034465;28;20092;-80
2023/07/28 12:02:05;;;;;;;9.45;6.85;;;25.60;99.90;;;;;;5017842;28;20045;-79
2023/07/28 12:04:36;;;;;;;6.60;5.15;;;25.70;99.90;;;;;;5034022;28;20045;-79
2023/07/28 12:07:12;;;;;;;9.13;5.30;;;25.80;99.90;;;;;;5017581;28;20045;-79
2023/07/28 12:09:51;;;;;;;9.10;5.30;;;25.90;99.90;;;;;;5016821;28;20505;-79
2023/07/28 12:12:18;;;;;;;8.70;4.95;;;26.00;99.90;;;;;;5016977;28;20099;-79
2023/07/28 12:14:46;;;;;;;7.10;4.32;;;26.00;99.90;;;;;;5016876;28;20042;-78
2023/07/28 12:17:20;;;;;;;8.63;4.88;;;26.00;99.90;;;;;;5033207;28;20129;-79
2023/07/28 12:20:10;;;;;;;9.50;5.25;;;26.10;99.90;;;;;;5033527;28;20045;-79
2023/07/28 12:22:43;;;;;;;7.88;4.25;;;26.30;99.90;;;;;;5034003;28;20426;-80
2023/07/28 12:25:10;;;;;;;6.50;4.63;;;26.50;99.90;;;;;;5017817;28;20037;-80
2023/07/28 12:27:35;;;;;;;8.40;4.38;;;26.50;99.90;;;;;;5019826;28;20044;-80
2023/07/28 12:30:03;;;;;;;11.20;4.40;;;26.50;99.90;;;;;;5036143;28;20045;-81
2023/07/28 12:32:29;;;;;;;9.55;4.82;;;26.50;99.90;;;;;;5018919;28;20521;-79
2023/07/28 12:34:55;;;;;;;8.73;4.32;;;26.60;99.90;;;;;;5018624;28;20044;-79